Terminal Aerodrome Forecast
Issued by NWS Albany, NY

Home | Current Version | Previous Version | Text Only | Print | Product List | Glossary On
Versions: 1 2 3 4 5 6 7 8 9 10 11 12 13 14 15 16 17 18 19 20
000
FTUS41 KALY 280520
TAFGFL
TAF
KGFL 280520Z 2806/2906 00000KT P6SM BKN080
      TEMPO 2808/2812 1SM BR BKN001
     FM281200 00000KT P6SM SCT060
     FM281800 17006KT P6SM SCT070
     FM282200 18006KT P6SM BKN070
      AMD NOT SKED=

USA.gov is the U.S. government's official web portal to all federal, state and local government web resources and services.